sensor_id;sensor_type;location;lat;lon;timestamp;pressure;altitude;pressure_sealevel;temperature;humidity
48156;BME280;35568;48.104;11.782;2024-01-11T00:01:37;96142.95;;;-2.50;45.67
48156;BME280;35568;48.104;11.782;2024-01-11T00:04:05;96144.67;;;-2.05;45.44
48156;BME280;35568;48.104;11.782;2024-01-11T00:06:33;96145.95;;;-1.89;45.56
48156;BME280;35568;48.104;11.782;2024-01-11T00:09:00;96143.95;;;-2.01;45.07
48156;BME280;35568;48.104;11.782;2024-01-11T00:11:27;96142.43;;;-2.10;45.92
48156;BME280;35568;48.104;11.782;2024-01-11T00:13:54;96142.73;;;-1.90;45.75
48156;BME280;35568;48.104;11.782;2024-01-11T00:16:21;96145.69;;;-2.31;44.69
48156;BME280;35568;48.104;11.782;2024-01-11T00:18:48;96149.64;;;-2.19;45.23
48156;BME280;35568;48.104;11.782;2024-01-11T00:21:15;96151.36;;;-2.18;45.93
48156;BME280;35568;48.104;11.782;2024-01-11T00:23:42;96153.75;;;-2.61;45.97
48156;BME280;35568;48.104;11.782;2024-01-11T00:26:12;96151.02;;;-2.19;45.57
48156;BME280;35568;48.104;11.782;2024-01-11T00:28:39;96152.86;;;-1.94;45.13
48156;BME280;35568;48.104;11.782;2024-01-11T00:31:06;96153.61;;;-2.04;44.82
48156;BME280;35568;48.104;11.782;2024-01-11T00:33:33;96150.99;;;-1.78;45.08
48156;BME280;35568;48.104;11.782;2024-01-11T00:36:00;96149.76;;;-1.67;45.09
48156;BME280;35568;48.104;11.782;2024-01-11T00:38:28;96145.49;;;-2.05;44.49
48156;BME280;35568;48.104;11.782;2024-01-11T00:40:55;96147.66;;;-2.05;44.70
48156;BME280;35568;48.104;11.782;2024-01-11T00:43:23;96150.02;;;-1.67;45.59
48156;BME280;35568;48.104;11.782;2024-01-11T00:45:51;96148.40;;;-1.90;44.15
48156;BME280;35568;48.104;11.782;2024-01-11T00:48:18;96147.86;;;-1.91;44.38
48156;BME280;35568;48.104;11.782;2024-01-11T00:50:45;96147.49;;;-2.17;44.38
48156;BME280;35568;48.104;11.782;2024-01-11T00:53:12;96145.74;;;-2.13;45.05
48156;BME280;35568;48.104;11.782;2024-01-11T00:55:40;96148.53;;;-2.05;44.89
48156;BME280;35568;48.104;11.782;2024-01-11T00:58:07;96150.58;;;-2.40;44.66
48156;BME280;35568;48.104;11.782;2024-01-11T01:00:35;96149.50;;;-2.61;45.11
48156;BME280;35568;48.104;11.782;2024-01-11T01:03:02;96150.52;;;-2.60;45.31
48156;BME280;35568;48.104;11.782;2024-01-11T01:05:30;96151.34;;;-2.46;45.82
48156;BME280;35568;48.104;11.782;2024-01-11T01:07:57;96157.35;;;-2.31;44.96
48156;BME280;35568;48.104;11.782;2024-01-11T01:10:24;96157.70;;;-2.50;45.00
48156;BME280;35568;48.104;11.782;2024-01-11T01:12:51;96162.10;;;-2.42;45.33
48156;BME280;35568;48.104;11.782;2024-01-11T01:15:18;96165.33;;;-2.55;45.00
48156;BME280;35568;48.104;11.782;2024-01-11T01:17:46;96163.16;;;-2.68;44.98
48156;BME280;35568;48.104;11.782;2024-01-11T01:20:13;96161.88;;;-2.78;45.94
48156;BME280;35568;48.104;11.782;2024-01-11T01:22:41;96162.49;;;-2.69;45.08
48156;BME280;35568;48.104;11.782;2024-01-11T01:25:08;96163.62;;;-2.82;44.63
48156;BME280;35568;48.104;11.782;2024-01-11T01:27:35;96165.03;;;-3.22;45.02
48156;BME280;35568;48.104;11.782;2024-01-11T01:30:03;96161.27;;;-3.48;45.66
48156;BME280;35568;48.104;11.782;2024-01-11T01:32:30;96162.00;;;-3.64;46.28
48156;BME280;35568;48.104;11.782;2024-01-11T01:34:57;96165.77;;;-3.34;46.45
48156;BME280;35568;48.104;11.782;2024-01-11T01:37:24;96169.83;;;-3.34;45.50
48156;BME280;35568;48.104;11.782;2024-01-11T01:39:51;96172.91;;;-3.31;46.34
48156;BME280;35568;48.104;11.782;2024-01-11T01:42:19;96173.74;;;-3.13;45.73
48156;BME280;35568;48.104;11.782;2024-01-11T01:44:46;96174.30;;;-3.04;45.31
48156;BME280;35568;48.104;11.782;2024-01-11T01:47:14;96174.63;;;-2.97;45.07
48156;BME280;35568;48.104;11.782;2024-01-11T01:49:43;96178.99;;;-2.94;44.70
48156;BME280;35568;48.104;11.782;2024-01-11T01:52:11;96182.71;;;-2.66;44.85
48156;BME280;35568;48.104;11.782;2024-01-11T01:54:40;96185.62;;;-3.11;45.21
48156;BME280;35568;48.104;11.782;2024-01-11T01:57:08;96187.31;;;-3.23;45.69
48156;BME280;35568;48.104;11.782;2024-01-11T01:59:36;96189.28;;;-2.94;46.05
48156;BME280;35568;48.104;11.782;2024-01-11T02:02:05;96187.21;;;-3.29;45.60
48156;BME280;35568;48.104;11.782;2024-01-11T02:04:32;96186.50;;;-2.96;45.61
48156;BME280;35568;48.104;11.782;2024-01-11T02:07:00;96187.85;;;-2.99;46.29
48156;BME280;35568;48.104;11.782;2024-01-11T02:09:28;96189.26;;;-3.02;45.46
48156;BME280;35568;48.104;11.782;2024-01-11T02:11:58;96191.00;;;-2.95;45.30
48156;BME280;35568;48.104;11.782;2024-01-11T02:14:25;96189.53;;;-3.18;45.91
48156;BME280;35568;48.104;11.782;2024-01-11T02:19:03;96185.86;;;-2.47;46.11
48156;BME280;35568;48.104;11.782;2024-01-11T02:21:32;96184.81;;;-3.05;46.27
48156;BME280;35568;48.104;11.782;2024-01-11T02:24:03;96182.01;;;-2.87;46.10
48156;BME280;35568;48.104;11.782;2024-01-11T02:26:31;96180.84;;;-2.90;45.82
48156;BME280;35568;48.104;11.782;2024-01-11T02:28:58;96181.65;;;-3.14;45.76
48156;BME280;35568;48.104;11.782;2024-01-11T02:31:26;96181.47;;;-2.54;46.61
48156;BME280;35568;48.104;11.782;2024-01-11T02:33:54;96182.53;;;-2.88;45.16
48156;BME280;35568;48.104;11.782;2024-01-11T02:36:22;96178.03;;;-2.78;44.94
48156;BME280;35568;48.104;11.782;2024-01-11T02:38:50;96174.92;;;-2.86;45.05
48156;BME280;35568;48.104;11.782;2024-01-11T02:41:19;96174.48;;;-2.82;45.11
48156;BME280;35568;48.104;11.782;2024-01-11T02:43:47;96174.99;;;-2.78;45.36
48156;BME280;35568;48.104;11.782;2024-01-11T02:46:15;96170.27;;;-2.61;45.19
48156;BME280;35568;48.104;11.782;2024-01-11T02:48:43;96169.53;;;-2.36;44.71
48156;BME280;35568;48.104;11.782;2024-01-11T02:51:11;96167.58;;;-2.29;44.20
48156;BME280;35568;48.104;11.782;2024-01-11T02:53:37;96165.85;;;-2.70;44.71
48156;BME280;35568;48.104;11.782;2024-01-11T02:56:05;96159.97;;;-2.45;45.01
48156;BME280;35568;48.104;11.782;2024-01-11T02:58:32;96158.46;;;-2.41;45.37
48156;BME280;35568;48.104;11.782;2024-01-11T03:00:59;96155.08;;;-2.22;44.71
48156;BME280;35568;48.104;11.782;2024-01-11T03:03:26;96151.92;;;-2.46;44.83
48156;BME280;35568;48.104;11.782;2024-01-11T03:05:54;96150.04;;;-2.19;44.64
48156;BME280;35568;48.104;11.782;2024-01-11T03:08:21;96150.26;;;-2.64;44.89
48156;BME280;35568;48.104;11.782;2024-01-11T03:10:48;96147.54;;;-2.41;45.29
48156;BME280;35568;48.104;11.782;2024-01-11T03:13:16;96142.91;;;-2.65;44.71
48156;BME280;35568;48.104;11.782;2024-01-11T03:15:43;96142.13;;;-2.66;45.11
48156;BME280;35568;48.104;11.782;2024-01-11T03:18:10;96141.29;;;-2.43;44.98
48156;BME280;35568;48.104;11.782;2024-01-11T03:20:38;96140.79;;;-2.75;44.51
48156;BME280;35568;48.104;11.782;2024-01-11T03:23:05;96136.39;;;-2.60;44.90
48156;BME280;35568;48.104;11.782;2024-01-11T03:25:32;96141.06;;;-2.59;44.96
48156;BME280;35568;48.104;11.782;2024-01-11T03:27:59;96140.98;;;-2.51;45.26
48156;BME280;35568;48.104;11.782;2024-01-11T03:30:26;96140.14;;;-2.37;44.77
48156;BME280;35568;48.104;11.782;2024-01-11T03:32:53;96136.33;;;-2.38;45.28
48156;BME280;35568;48.104;11.782;2024-01-11T03:35:21;96135.86;;;-2.41;45.02
48156;BME280;35568;48.104;11.782;2024-01-11T03:37:48;96134.31;;;-2.22;45.11
48156;BME280;35568;48.104;11.782;2024-01-11T03:40:15;96129.71;;;-2.34;45.52
48156;BME280;35568;48.104;11.782;2024-01-11T03:42:42;96128.32;;;-2.56;44.26
48156;BME280;35568;48.104;11.782;2024-01-11T03:45:10;96123.47;;;-3.16;45.53
48156;BME280;35568;48.104;11.782;2024-01-11T03:47:37;96124.54;;;-3.26;44.94
48156;BME280;35568;48.104;11.782;2024-01-11T03:50:05;96122.94;;;-2.89;46.08
48156;BME280;35568;48.104;11.782;2024-01-11T03:52:33;96123.01;;;-3.09;45.79
48156;BME280;35568;48.104;11.782;2024-01-11T03:55:00;96122.73;;;-2.74;45.09
48156;BME280;35568;48.104;11.782;2024-01-11T03:57:27;96118.37;;;-2.88;45.32
48156;BME280;35568;48.104;11.782;2024-01-11T03:59:54;96111.62;;;-2.76;45.45
48156;BME280;35568;48.104;11.782;2024-01-11T04:03:00;96106.81;;;-1.90;44.56
48156;BME280;35568;48.104;11.782;2024-01-11T04:05:28;96103.74;;;-2.10;45.09
48156;BME280;35568;48.104;11.782;2024-01-11T04:07:55;96102.86;;;-2.72;45.52
48156;BME280;35568;48.104;11.782;2024-01-11T04:10:22;96103.35;;;-2.67;46.07
48156;BME280;35568;48.104;11.782;2024-01-11T04:12:49;96102.97;;;-3.14;46.45
48156;BME280;35568;48.104;11.782;2024-01-11T04:15:16;96107.04;;;-3.27;46.49
48156;BME280;35568;48.104;11.782;2024-01-11T04:17:43;96108.77;;;-3.40;47.28
48156;BME280;35568;48.104;11.782;2024-01-11T04:20:11;96109.81;;;-3.13;46.99
48156;BME280;35568;48.104;11.782;2024-01-11T04:22:38;96113.61;;;-2.87;47.03
48156;BME280;35568;48.104;11.782;2024-01-11T04:25:06;96116.93;;;-3.14;47.29
48156;BME280;35568;48.104;11.782;2024-01-11T04:27:34;96115.17;;;-3.16;46.69
48156;BME280;35568;48.104;11.782;2024-01-11T04:30:01;96117.16;;;-3.44;48.08
48156;BME280;35568;48.104;11.782;2024-01-11T04:32:28;96121.86;;;-3.50;48.37
48156;BME280;35568;48.104;11.782;2024-01-11T04:34:55;96126.29;;;-3.54;47.97
48156;BME280;35568;48.104;11.782;2024-01-11T04:37:22;96131.28;;;-3.31;47.72
48156;BME280;35568;48.104;11.782;2024-01-11T04:39:49;96132.68;;;-3.25;48.31
48156;BME280;35568;48.104;11.782;2024-01-11T04:42:16;96143.03;;;-3.29;47.73
48156;BME280;35568;48.104;11.782;2024-01-11T04:44:43;96142.62;;;-3.33;47.88
48156;BME280;35568;48.104;11.782;2024-01-11T04:47:10;96137.30;;;-3.40;47.97
48156;BME280;35568;48.104;11.782;2024-01-11T04:49:37;96134.78;;;-3.46;47.88
48156;BME280;35568;48.104;11.782;2024-01-11T04:52:05;96135.80;;;-3.44;47.74
48156;BME280;35568;48.104;11.782;2024-01-11T04:54:32;96135.70;;;-3.59;47.68
48156;BME280;35568;48.104;11.782;2024-01-11T04:56:59;96134.32;;;-3.44;48.09
48156;BME280;35568;48.104;11.782;2024-01-11T04:59:27;96132.26;;;-3.62;47.77
48156;BME280;35568;48.104;11.782;2024-01-11T05:01:54;96129.77;;;-3.77;48.04
48156;BME280;35568;48.104;11.782;2024-01-11T05:04:21;96126.77;;;-3.54;48.29
48156;BME280;35568;48.104;11.782;2024-01-11T05:06:50;96130.71;;;-3.55;48.22
48156;BME280;35568;48.104;11.782;2024-01-11T05:09:17;96134.60;;;-3.40;47.77
48156;BME280;35568;48.104;11.782;2024-01-11T05:11:45;96137.39;;;-3.34;47.88
48156;BME280;35568;48.104;11.782;2024-01-11T05:14:12;96135.05;;;-3.78;47.98
48156;BME280;35568;48.104;11.782;2024-01-11T05:16:39;96132.65;;;-3.82;48.26
48156;BME280;35568;48.104;11.782;2024-01-11T05:19:06;96132.00;;;-3.81;48.64
48156;BME280;35568;48.104;11.782;2024-01-11T05:21:34;96129.79;;;-3.54;48.33
48156;BME280;35568;48.104;11.782;2024-01-11T05:24:01;96129.19;;;-3.50;47.93
48156;BME280;35568;48.104;11.782;2024-01-11T05:26:28;96132.12;;;-3.21;47.00
48156;BME280;35568;48.104;11.782;2024-01-11T05:28:55;96129.50;;;-3.38;47.83
48156;BME280;35568;48.104;11.782;2024-01-11T05:31:22;96127.81;;;-3.52;47.42
48156;BME280;35568;48.104;11.782;2024-01-11T05:33:49;96128.17;;;-3.92;48.49
48156;BME280;35568;48.104;11.782;2024-01-11T05:36:17;96137.92;;;-4.06;48.57
48156;BME280;35568;48.104;11.782;2024-01-11T05:38:45;96146.65;;;-4.08;48.61
48156;BME280;35568;48.104;11.782;2024-01-11T05:41:12;96146.05;;;-4.43;48.34
48156;BME280;35568;48.104;11.782;2024-01-11T05:43:40;96145.42;;;-3.86;48.76
48156;BME280;35568;48.104;11.782;2024-01-11T05:46:07;96143.84;;;-3.87;48.92
48156;BME280;35568;48.104;11.782;2024-01-11T05:48:35;96149.64;;;-4.14;48.29
48156;BME280;35568;48.104;11.782;2024-01-11T05:51:02;96149.80;;;-3.99;48.45
48156;BME280;35568;48.104;11.782;2024-01-11T05:53:29;96147.84;;;-4.00;47.63
48156;BME280;35568;48.104;11.782;2024-01-11T05:55:56;96155.00;;;-3.70;48.32
48156;BME280;35568;48.104;11.782;2024-01-11T05:58:23;96161.36;;;-4.36;48.51
48156;BME280;35568;48.104;11.782;2024-01-11T06:00:50;96161.23;;;-3.92;48.15
48156;BME280;35568;48.104;11.782;2024-01-11T06:03:17;96162.28;;;-4.53;48.18
48156;BME280;35568;48.104;11.782;2024-01-11T06:05:44;96163.75;;;-4.36;49.57
48156;BME280;35568;48.104;11.782;2024-01-11T06:08:12;96164.24;;;-3.98;49.35
48156;BME280;35568;48.104;11.782;2024-01-11T06:10:39;96164.69;;;-4.10;49.02
48156;BME280;35568;48.104;11.782;2024-01-11T06:13:06;96165.80;;;-4.12;48.04
48156;BME280;35568;48.104;11.782;2024-01-11T06:15:34;96164.63;;;-4.91;48.70
48156;BME280;35568;48.104;11.782;2024-01-11T06:18:01;96161.35;;;-3.50;47.42
48156;BME280;35568;48.104;11.782;2024-01-11T06:20:28;96168.19;;;-3.61;47.62
48156;BME280;35568;48.104;11.782;2024-01-11T06:22:56;96179.04;;;-3.64;47.75
48156;BME280;35568;48.104;11.782;2024-01-11T06:25:23;96184.14;;;-3.84;48.90
48156;BME280;35568;48.104;11.782;2024-01-11T06:27:50;96189.09;;;-3.68;47.63
48156;BME280;35568;48.104;11.782;2024-01-11T06:30:17;96190.11;;;-3.52;47.47
48156;BME280;35568;48.104;11.782;2024-01-11T06:32:44;96188.27;;;-3.96;48.00
48156;BME280;35568;48.104;11.782;2024-01-11T06:35:11;96189.37;;;-3.95;47.56
48156;BME280;35568;48.104;11.782;2024-01-11T06:37:38;96197.25;;;-4.34;47.77
48156;BME280;35568;48.104;11.782;2024-01-11T06:40:07;96204.15;;;-3.93;48.72
48156;BME280;35568;48.104;11.782;2024-01-11T06:42:34;96210.70;;;-4.26;48.94
48156;BME280;35568;48.104;11.782;2024-01-11T06:45:01;96212.53;;;-4.00;48.69
48156;BME280;35568;48.104;11.782;2024-01-11T06:47:29;96217.58;;;-4.12;48.21
48156;BME280;35568;48.104;11.782;2024-01-11T06:49:56;96219.05;;;-4.08;47.78
48156;BME280;35568;48.104;11.782;2024-01-11T06:52:23;96219.16;;;-4.16;47.98
48156;BME280;35568;48.104;11.782;2024-01-11T06:54:50;96216.65;;;-4.40;48.72
48156;BME280;35568;48.104;11.782;2024-01-11T06:57:18;96214.11;;;-4.62;48.66
48156;BME280;35568;48.104;11.782;2024-01-11T06:59:45;96215.50;;;-4.46;48.53
48156;BME280;35568;48.104;11.782;2024-01-11T07:02:13;96218.02;;;-3.90;47.83
48156;BME280;35568;48.104;11.782;2024-01-11T07:04:45;96213.02;;;-4.03;47.99
48156;BME280;35568;48.104;11.782;2024-01-11T07:07:13;96210.54;;;-3.95;49.00
48156;BME280;35568;48.104;11.782;2024-01-11T07:09:41;96211.40;;;-3.60;48.97
48156;BME280;35568;48.104;11.782;2024-01-11T07:12:09;96221.71;;;-3.95;48.08
48156;BME280;35568;48.104;11.782;2024-01-11T07:14:36;96229.03;;;-3.63;46.64
48156;BME280;35568;48.104;11.782;2024-01-11T07:17:03;96230.19;;;-3.62;47.45
48156;BME280;35568;48.104;11.782;2024-01-11T07:19:30;96228.26;;;-3.63;46.81
48156;BME280;35568;48.104;11.782;2024-01-11T07:21:58;96224.35;;;-3.70;46.94
48156;BME280;35568;48.104;11.782;2024-01-11T07:24:26;96227.71;;;-3.81;47.39
48156;BME280;35568;48.104;11.782;2024-01-11T07:26:53;96226.45;;;-3.53;47.86
48156;BME280;35568;48.104;11.782;2024-01-11T07:29:20;96223.31;;;-3.90;47.57
48156;BME280;35568;48.104;11.782;2024-01-11T07:31:48;96225.94;;;-3.87;47.78
48156;BME280;35568;48.104;11.782;2024-01-11T07:34:15;96226.18;;;-3.81;47.77
48156;BME280;35568;48.104;11.782;2024-01-11T07:36:43;96220.43;;;-3.70;47.93
48156;BME280;35568;48.104;11.782;2024-01-11T07:39:10;96214.27;;;-4.34;47.99
48156;BME280;35568;48.104;11.782;2024-01-11T07:41:38;96214.71;;;-4.57;48.07
48156;BME280;35568;48.104;11.782;2024-01-11T07:44:05;96218.21;;;-3.95;47.42
48156;BME280;35568;48.104;11.782;2024-01-11T07:46:32;96220.86;;;-3.84;48.03
48156;BME280;35568;48.104;11.782;2024-01-11T07:48:59;96224.54;;;-3.52;47.71
48156;BME280;35568;48.104;11.782;2024-01-11T07:51:27;96230.78;;;-3.23;47.59
48156;BME280;35568;48.104;11.782;2024-01-11T07:53:54;96231.27;;;-2.93;46.79
48156;BME280;35568;48.104;11.782;2024-01-11T07:56:21;96233.10;;;-2.65;46.66
48156;BME280;35568;48.104;11.782;2024-01-11T07:58:48;96234.61;;;-2.64;46.55
48156;BME280;35568;48.104;11.782;2024-01-11T08:01:16;96232.57;;;-2.76;46.30
48156;BME280;35568;48.104;11.782;2024-01-11T08:03:43;96234.05;;;-2.52;47.48
48156;BME280;35568;48.104;11.782;2024-01-11T08:06:10;96238.01;;;-2.96;47.07
48156;BME280;35568;48.104;11.782;2024-01-11T08:08:37;96237.85;;;-2.31;45.97
48156;BME280;35568;48.104;11.782;2024-01-11T08:11:05;96229.12;;;-3.41;46.73
48156;BME280;35568;48.104;11.782;2024-01-11T08:13:33;96223.58;;;-3.91;47.64
48156;BME280;35568;48.104;11.782;2024-01-11T08:16:00;96224.05;;;-3.88;48.40
48156;BME280;35568;48.104;11.782;2024-01-11T08:18:27;96229.60;;;-4.14;48.56
48156;BME280;35568;48.104;11.782;2024-01-11T08:20:54;96238.91;;;-4.51;48.96
48156;BME280;35568;48.104;11.782;2024-01-11T08:23:21;96239.16;;;-3.76;49.02
48156;BME280;35568;48.104;11.782;2024-01-11T08:25:49;96238.23;;;-3.98;48.89
48156;BME280;35568;48.104;11.782;2024-01-11T08:28:16;96237.84;;;-3.96;49.13
48156;BME280;35568;48.104;11.782;2024-01-11T08:30:44;96244.22;;;-3.63;48.62
48156;BME280;35568;48.104;11.782;2024-01-11T08:33:11;96247.86;;;-3.03;48.29
48156;BME280;35568;48.104;11.782;2024-01-11T08:35:38;96251.07;;;-2.79;47.78
48156;BME280;35568;48.104;11.782;2024-01-11T08:38:05;96256.37;;;-2.74;47.83
48156;BME280;35568;48.104;11.782;2024-01-11T08:40:32;96254.42;;;-2.57;47.84
48156;BME280;35568;48.104;11.782;2024-01-11T08:43:00;96252.22;;;-2.45;47.34
48156;BME280;35568;48.104;11.782;2024-01-11T08:45:27;96255.37;;;-2.35;46.95
48156;BME280;35568;48.104;11.782;2024-01-11T08:47:54;96266.25;;;-2.45;47.11
48156;BME280;35568;48.104;11.782;2024-01-11T08:50:23;96276.88;;;-2.19;46.60
48156;BME280;35568;48.104;11.782;2024-01-11T08:52:51;96278.77;;;-1.82;46.52
48156;BME280;35568;48.104;11.782;2024-01-11T08:55:18;96294.06;;;-1.81;46.40
48156;BME280;35568;48.104;11.782;2024-01-11T08:57:45;96301.16;;;-2.10;46.36
48156;BME280;35568;48.104;11.782;2024-01-11T09:00:12;96302.86;;;-2.07;46.55
48156;BME280;35568;48.104;11.782;2024-01-11T09:02:40;96293.96;;;-2.04;46.34
48156;BME280;35568;48.104;11.782;2024-01-11T09:05:07;96296.19;;;-1.86;46.23
48156;BME280;35568;48.104;11.782;2024-01-11T09:07:34;96306.32;;;-2.13;46.16
48156;BME280;35568;48.104;11.782;2024-01-11T09:10:01;96315.93;;;-2.81;46.14
48156;BME280;35568;48.104;11.782;2024-01-11T09:12:28;96318.98;;;-3.21;46.60
48156;BME280;35568;48.104;11.782;2024-01-11T09:14:55;96321.58;;;-3.37;47.85
48156;BME280;35568;48.104;11.782;2024-01-11T09:17:22;96324.52;;;-3.84;47.32
48156;BME280;35568;48.104;11.782;2024-01-11T09:19:50;96323.40;;;-3.89;48.54
48156;BME280;35568;48.104;11.782;2024-01-11T09:22:19;96312.03;;;-4.21;48.26
48156;BME280;35568;48.104;11.782;2024-01-11T09:24:46;96301.06;;;-4.56;48.89
48156;BME280;35568;48.104;11.782;2024-01-11T09:27:13;96303.28;;;-4.44;49.77
48156;BME280;35568;48.104;11.782;2024-01-11T09:29:44;96313.73;;;-4.64;48.95
48156;BME280;35568;48.104;11.782;2024-01-11T09:32:11;96322.32;;;-4.48;50.03
48156;BME280;35568;48.104;11.782;2024-01-11T09:34:39;96321.61;;;-4.56;49.20
48156;BME280;35568;48.104;11.782;2024-01-11T09:37:05;96319.89;;;-4.08;49.49
48156;BME280;35568;48.104;11.782;2024-01-11T09:39:33;96316.12;;;-4.08;49.40
48156;BME280;35568;48.104;11.782;2024-01-11T09:42:06;96309.83;;;-3.90;48.99
48156;BME280;35568;48.104;11.782;2024-01-11T09:44:33;96309.88;;;-3.48;48.45
48156;BME280;35568;48.104;11.782;2024-01-11T09:47:01;96308.67;;;-3.04;47.49
48156;BME280;35568;48.104;11.782;2024-01-11T09:49:29;96305.51;;;-2.79;47.45
48156;BME280;35568;48.104;11.782;2024-01-11T09:51:57;96309.06;;;-2.72;46.84
48156;BME280;35568;48.104;11.782;2024-01-11T09:54:25;96310.65;;;-2.72;46.30
48156;BME280;35568;48.104;11.782;2024-01-11T09:56:53;96311.01;;;-2.65;46.22
48156;BME280;35568;48.104;11.782;2024-01-11T09:59:21;96299.83;;;-3.03;46.64
48156;BME280;35568;48.104;11.782;2024-01-11T10:01:51;96290.91;;;-2.83;45.84
48156;BME280;35568;48.104;11.782;2024-01-11T10:04:17;96294.68;;;-2.98;45.99
48156;BME280;35568;48.104;11.782;2024-01-11T10:06:45;96287.66;;;-2.35;46.58
48156;BME280;35568;48.104;11.782;2024-01-11T10:09:13;96274.95;;;-3.24;46.84
48156;BME280;35568;48.104;11.782;2024-01-11T10:11:40;96274.05;;;-2.90;47.43
48156;BME280;35568;48.104;11.782;2024-01-11T10:14:07;96274.11;;;-2.26;46.84
48156;BME280;35568;48.104;11.782;2024-01-11T10:16:34;96269.41;;;-2.39;46.56
48156;BME280;35568;48.104;11.782;2024-01-11T10:19:01;96272.23;;;-1.99;46.00
48156;BME280;35568;48.104;11.782;2024-01-11T10:21:28;96277.88;;;-1.56;44.58
48156;BME280;35568;48.104;11.782;2024-01-11T10:23:58;96267.88;;;-1.85;44.73
48156;BME280;35568;48.104;11.782;2024-01-11T10:26:25;96257.53;;;-2.77;46.04
48156;BME280;35568;48.104;11.782;2024-01-11T10:28:52;96254.80;;;-3.14;46.36
48156;BME280;35568;48.104;11.782;2024-01-11T10:31:22;96253.93;;;-2.39;46.35
48156;BME280;35568;48.104;11.782;2024-01-11T10:33:49;96257.66;;;-2.24;46.57
48156;BME280;35568;48.104;11.782;2024-01-11T10:36:15;96264.89;;;-2.07;45.13
48156;BME280;35568;48.104;11.782;2024-01-11T10:38:45;96261.44;;;-2.10;45.30
48156;BME280;35568;48.104;11.782;2024-01-11T10:41:16;96248.87;;;-1.45;45.67
48156;BME280;35568;48.104;11.782;2024-01-11T10:43:46;96248.01;;;-1.41;45.54
48156;BME280;35568;48.104;11.782;2024-01-11T10:46:19;96243.16;;;-1.37;44.60
48156;BME280;35568;48.104;11.782;2024-01-11T10:48:56;96238.77;;;-1.03;44.09
48156;BME280;35568;48.104;11.782;2024-01-11T10:51:27;96235.51;;;-0.85;43.85
48156;BME280;35568;48.104;11.782;2024-01-11T10:53:55;96245.16;;;-1.33;43.48
48156;BME280;35568;48.104;11.782;2024-01-11T10:56:24;96252.29;;;-1.41;44.39
48156;BME280;35568;48.104;11.782;2024-01-11T10:58:53;96255.76;;;-1.65;43.99
48156;BME280;35568;48.104;11.782;2024-01-11T11:01:21;96271.34;;;-1.88;44.84
48156;BME280;35568;48.104;11.782;2024-01-11T11:03:51;96264.25;;;-2.52;45.71
48156;BME280;35568;48.104;11.782;2024-01-11T11:06:20;96254.93;;;-2.67;46.13
48156;BME280;35568;48.104;11.782;2024-01-11T11:08:49;96248.17;;;-2.20;46.04
48156;BME280;35568;48.104;11.782;2024-01-11T11:11:17;96245.16;;;-1.81;45.14
48156;BME280;35568;48.104;11.782;2024-01-11T11:13:47;96241.84;;;-1.63;44.85
48156;BME280;35568;48.104;11.782;2024-01-11T11:16:15;96239.71;;;-1.29;45.15
48156;BME280;35568;48.104;11.782;2024-01-11T11:18:42;96237.17;;;-1.15;44.19
48156;BME280;35568;48.104;11.782;2024-01-11T11:21:10;96241.61;;;-0.86;43.93
48156;BME280;35568;48.104;11.782;2024-01-11T11:23:38;96232.48;;;-0.53;43.74
48156;BME280;35568;48.104;11.782;2024-01-11T11:26:06;96233.50;;;-0.69;44.21
48156;BME280;35568;48.104;11.782;2024-01-11T11:28:33;96246.03;;;-0.35;43.97
48156;BME280;35568;48.104;11.782;2024-01-11T11:31:02;96247.32;;;-0.50;42.80
48156;BME280;35568;48.104;11.782;2024-01-11T11:33:30;96251.29;;;-0.51;43.77
48156;BME280;35568;48.104;11.782;2024-01-11T11:35:58;96254.07;;;-0.59;43.03
48156;BME280;35568;48.104;11.782;2024-01-11T11:38:27;96256.01;;;-0.55;43.64
48156;BME280;35568;48.104;11.782;2024-01-11T11:40:56;96240.66;;;-0.72;43.70
48156;BME280;35568;48.104;11.782;2024-01-11T11:43:24;96232.91;;;-0.31;43.13
48156;BME280;35568;48.104;11.782;2024-01-11T11:45:52;96236.05;;;-0.72;43.96
48156;BME280;35568;48.104;11.782;2024-01-11T11:48:53;96234.00;;;0.30;43.15
48156;BME280;35568;48.104;11.782;2024-01-11T11:51:21;96235.45;;;-0.09;43.11
48156;BME280;35568;48.104;11.782;2024-01-11T11:53:49;96227.70;;;-0.42;43.17
48156;BME280;35568;48.104;11.782;2024-01-11T11:56:18;96232.77;;;-0.49;43.71
48156;BME280;35568;48.104;11.782;2024-01-11T11:58:46;96237.20;;;-0.41;43.67
48156;BME280;35568;48.104;11.782;2024-01-11T12:01:14;96231.12;;;-0.58;43.15
48156;BME280;35568;48.104;11.782;2024-01-11T12:03:42;96235.52;;;-0.93;43.59
48156;BME280;35568;48.104;11.782;2024-01-11T12:06:10;96246.20;;;-1.07;45.16
48156;BME280;35568;48.104;11.782;2024-01-11T12:08:37;96242.33;;;-0.64;44.85
48156;BME280;35568;48.104;11.782;2024-01-11T12:11:05;96248.74;;;-1.02;43.62
48156;BME280;35568;48.104;11.782;2024-01-11T12:13:32;96247.09;;;-1.79;44.42
48156;BME280;35568;48.104;11.782;2024-01-11T12:15:59;96246.72;;;-1.83;45.50
48156;BME280;35568;48.104;11.782;2024-01-11T12:18:26;96250.01;;;-2.11;45.33
48156;BME280;35568;48.104;11.782;2024-01-11T12:20:53;96245.63;;;-1.50;45.35
48156;BME280;35568;48.104;11.782;2024-01-11T12:23:20;96229.85;;;-1.08;44.67
48156;BME280;35568;48.104;11.782;2024-01-11T12:25:48;96215.68;;;-1.83;45.04
48156;BME280;35568;48.104;11.782;2024-01-11T12:28:15;96218.33;;;-1.46;45.39
48156;BME280;35568;48.104;11.782;2024-01-11T12:30:43;96220.24;;;-1.34;45.45
48156;BME280;35568;48.104;11.782;2024-01-11T12:33:12;96214.92;;;-1.23;44.80
48156;BME280;35568;48.104;11.782;2024-01-11T12:35:39;96217.44;;;-0.81;44.65
48156;BME280;35568;48.104;11.782;2024-01-11T12:38:06;96216.88;;;-0.87;43.59
48156;BME280;35568;48.104;11.782;2024-01-11T12:40:34;96210.00;;;-0.68;43.91
48156;BME280;35568;48.104;11.782;2024-01-11T12:43:01;96216.96;;;-1.15;44.00
48156;BME280;35568;48.104;11.782;2024-01-11T12:45:29;96231.11;;;-0.90;43.60
48156;BME280;35568;48.104;11.782;2024-01-11T12:47:56;96239.86;;;-0.54;43.95
48156;BME280;35568;48.104;11.782;2024-01-11T12:50:23;96239.00;;;-0.51;43.28
48156;BME280;35568;48.104;11.782;2024-01-11T12:53:05;96244.69;;;-0.58;42.74
48156;BME280;35568;48.104;11.782;2024-01-11T12:55:32;96236.93;;;-0.52;43.30